Aviation Digital Data Service (ADDS)

Output produced by METARs form (0240 UTC 24 November 2014)
found at http://aviationweather.gov/adds/metars/
 
KART 232339Z 2400/2424 09004KT P6SM SKC 
     FM240100 15008KT P6SM BKN080 
     FM240700 14012KT P6SM BKN110 
     FM240900 14015G23KT 6SM -SHRA OVC045 WS020/16045KT 
     FM241100 15019G25KT 6SM -SHRA OVC025 WS020/16050KT 
     FM241300 15020KT 6SM -SHRA OVC025 
     FM241500 18019G26KT 6SM -SHRA BKN035 
     FM241600 18018G27KT 6SM -SHRA BKN030 
     FM242000 18018G34KT 6SM -SHRA BKN035